createdAt,value
2022-12-29T00:01:10.266Z,7.80
2022-12-29T00:03:38.342Z,7.80
2022-12-29T00:06:08.105Z,7.80
2022-12-29T00:08:41.975Z,7.80
2022-12-29T00:11:11.165Z,7.90
2022-12-29T00:13:57.255Z,7.90
2022-12-29T00:16:26.004Z,7.90
2022-12-29T00:18:54.373Z,7.90
2022-12-29T00:21:42.727Z,7.90
2022-12-29T00:24:32.072Z,7.90
2022-12-29T00:27:28.545Z,7.90
2022-12-29T00:30:14.019Z,8.00
2022-12-29T00:32:59.639Z,8.00
2022-12-29T00:35:30.754Z,7.90
2022-12-29T00:38:21.400Z,8.00
2022-12-29T00:41:06.940Z,8.00
2022-12-29T00:43:52.540Z,8.00
2022-12-29T00:46:20.893Z,8.00
2022-12-29T00:49:14.713Z,8.00
2022-12-29T00:51:42.740Z,8.00
2022-12-29T00:54:12.116Z,8.10
2022-12-29T00:56:40.141Z,8.00
2022-12-29T00:59:10.023Z,8.10
2022-12-29T01:01:39.142Z,8.10
2022-12-29T01:04:07.966Z,8.10
2022-12-29T01:06:37.729Z,8.10
2022-12-29T01:09:24.349Z,8.10
2022-12-29T01:11:53.846Z,8.10
2022-12-29T01:14:22.258Z,8.10
2022-12-29T01:16:50.983Z,8.10
2022-12-29T01:19:19.570Z,8.10
2022-12-29T01:21:47.727Z,8.10
2022-12-29T01:24:16.075Z,8.20
2022-12-29T01:26:44.988Z,8.20
2022-12-29T01:29:15.018Z,8.20
2022-12-29T01:31:43.133Z,8.20
2022-12-29T01:34:11.255Z,8.20
2022-12-29T01:36:39.224Z,8.20
2022-12-29T01:39:07.207Z,8.20
2022-12-29T01:41:35.459Z,8.20
2022-12-29T01:44:03.624Z,8.20
2022-12-29T01:46:36.748Z,8.20
2022-12-29T01:49:13.158Z,8.20
2022-12-29T01:51:43.862Z,8.20
2022-12-29T01:54:15.850Z,8.20
2022-12-29T01:56:44.394Z,8.30
2022-12-29T01:59:17.521Z,8.30
2022-12-29T02:01:48.085Z,8.30
2022-12-29T02:04:16.688Z,8.30
2022-12-29T02:06:51.823Z,8.30
2022-12-29T02:09:20.407Z,8.30
2022-12-29T02:11:48.728Z,8.30
2022-12-29T02:14:16.744Z,8.30
2022-12-29T02:16:57.830Z,8.30
2022-12-29T02:20:00.597Z,8.30
2022-12-29T02:22:34.298Z,8.40
2022-12-29T02:25:43.576Z,8.40
2022-12-29T02:28:51.355Z,8.40
2022-12-29T02:31:25.932Z,8.40
2022-12-29T02:34:05.998Z,8.40
2022-12-29T02:36:42.352Z,8.40
2022-12-29T02:39:19.457Z,8.40
2022-12-29T02:41:59.157Z,8.50
2022-12-29T02:44:36.733Z,8.50
2022-12-29T02:47:13.004Z,8.50
2022-12-29T02:49:50.056Z,8.50
2022-12-29T02:52:22.043Z,8.50
2022-12-29T02:54:49.710Z,8.50
2022-12-29T02:57:31.359Z,8.50
2022-12-29T03:00:03.856Z,8.50
2022-12-29T03:03:03.259Z,8.50
2022-12-29T03:05:51.356Z,8.50
2022-12-29T03:08:30.071Z,8.50
2022-12-29T03:11:03.656Z,8.50
2022-12-29T03:13:57.411Z,8.50
2022-12-29T03:16:36.520Z,8.50
2022-12-29T03:19:12.613Z,8.50
2022-12-29T03:22:03.024Z,8.50
2022-12-29T03:24:35.274Z,8.50
2022-12-29T03:27:07.466Z,8.50
2022-12-29T03:29:38.959Z,8.50
2022-12-29T03:32:08.883Z,8.50
2022-12-29T03:34:39.788Z,8.50
2022-12-29T03:37:13.337Z,8.60
2022-12-29T03:39:43.407Z,8.60
2022-12-29T03:42:16.411Z,8.60
2022-12-29T03:44:47.708Z,8.60
2022-12-29T03:47:17.023Z,8.60
2022-12-29T03:49:46.608Z,8.60
2022-12-29T03:52:14.617Z,8.60
2022-12-29T03:54:42.615Z,8.60
2022-12-29T03:57:10.831Z,8.70
2022-12-29T03:59:38.892Z,8.70
2022-12-29T04:02:07.074Z,8.70
2022-12-29T04:04:35.207Z,8.70
2022-12-29T04:07:04.857Z,8.70
2022-12-29T04:09:32.886Z,8.70
2022-12-29T04:12:00.931Z,8.80
2022-12-29T04:14:28.904Z,8.70
2022-12-29T04:16:56.878Z,8.80
2022-12-29T04:19:24.862Z,8.80
2022-12-29T04:21:52.875Z,8.80
2022-12-29T04:24:22.553Z,8.80
2022-12-29T04:26:50.657Z,8.80
2022-12-29T04:29:18.627Z,8.80
2022-12-29T04:31:46.740Z,8.80
2022-12-29T04:34:14.925Z,8.80
2022-12-29T04:36:42.978Z,8.90
2022-12-29T04:39:11.193Z,8.90
2022-12-29T04:41:40.546Z,8.90
2022-12-29T04:44:08.537Z,8.90
2022-12-29T04:46:36.570Z,8.90
2022-12-29T04:49:09.386Z,8.90
2022-12-29T04:51:37.667Z,8.90
2022-12-29T04:54:05.837Z,8.90
2022-12-29T04:56:33.913Z,9.00
2022-12-29T04:59:03.266Z,9.00
2022-12-29T05:01:31.397Z,9.00
2022-12-29T05:03:59.464Z,9.00
2022-12-29T05:06:27.494Z,9.00
2022-12-29T05:08:55.502Z,9.00
2022-12-29T05:11:23.569Z,9.00
2022-12-29T05:13:51.533Z,9.00
2022-12-29T05:16:21.024Z,9.00
2022-12-29T05:18:49.196Z,9.00
2022-12-29T05:21:17.193Z,9.00
2022-12-29T05:23:45.361Z,9.00
2022-12-29T05:26:13.343Z,9.00
2022-12-29T05:28:41.361Z,9.00
2022-12-29T05:31:09.440Z,9.00
2022-12-29T05:33:38.907Z,9.10
2022-12-29T05:36:07.329Z,9.10
2022-12-29T05:38:35.829Z,9.10
2022-12-29T05:41:03.930Z,9.00
2022-12-29T05:43:31.911Z,9.00
2022-12-29T05:46:00.154Z,9.10
2022-12-29T05:48:31.616Z,9.10
2022-12-29T05:51:03.948Z,9.10
2022-12-29T05:53:31.928Z,9.10
2022-12-29T05:55:59.951Z,9.10
2022-12-29T05:58:27.970Z,9.10
2022-12-29T06:00:55.984Z,9.10
2022-12-29T06:03:24.117Z,9.10
2022-12-29T06:05:52.141Z,9.10
2022-12-29T06:08:21.516Z,9.10
2022-12-29T06:10:49.537Z,9.10
2022-12-29T06:13:17.703Z,9.10
2022-12-29T06:15:46.219Z,9.10
2022-12-29T06:18:19.630Z,9.10
2022-12-29T06:20:48.230Z,9.10
2022-12-29T06:23:17.524Z,9.10
2022-12-29T06:25:47.097Z,9.10
2022-12-29T06:28:15.192Z,9.10
2022-12-29T06:30:46.243Z,9.10
2022-12-29T06:33:14.377Z,9.10
2022-12-29T06:35:43.467Z,9.10
2022-12-29T06:38:11.572Z,9.00
2022-12-29T06:40:39.579Z,9.00
2022-12-29T06:43:08.940Z,9.00
2022-12-29T06:45:36.998Z,9.00
2022-12-29T06:48:05.243Z,8.90
2022-12-29T06:50:33.294Z,8.90
2022-12-29T06:53:01.280Z,8.90
2022-12-29T06:55:29.265Z,8.90
2022-12-29T06:57:57.684Z,8.90
2022-12-29T07:00:27.333Z,8.90
2022-12-29T07:02:57.245Z,8.90
2022-12-29T07:05:25.858Z,8.80
2022-12-29T07:07:53.894Z,8.90
2022-12-29T07:10:21.911Z,8.90
2022-12-29T07:12:49.886Z,8.90
2022-12-29T07:15:17.982Z,8.90
2022-12-29T07:17:47.314Z,8.90
2022-12-29T07:20:15.319Z,8.90
2022-12-29T07:22:43.485Z,9.00
2022-12-29T07:25:11.768Z,9.00
2022-12-29T07:27:39.784Z,9.00
2022-12-29T07:30:08.631Z,9.00
2022-12-29T07:32:36.952Z,9.00
2022-12-29T07:35:06.843Z,9.00
2022-12-29T07:37:35.607Z,9.00
2022-12-29T07:40:04.404Z,9.00
2022-12-29T07:42:33.197Z,9.00
2022-12-29T07:45:01.222Z,9.00
2022-12-29T07:47:29.683Z,9.00
2022-12-29T07:49:57.769Z,9.00
2022-12-29T07:52:27.479Z,9.00
2022-12-29T07:54:57.365Z,8.90
2022-12-29T07:57:32.014Z,8.90
2022-12-29T08:00:02.527Z,8.90
2022-12-29T08:02:32.058Z,8.90
2022-12-29T08:05:03.108Z,8.90
2022-12-29T08:07:32.467Z,8.90
2022-12-29T08:10:00.548Z,8.90
2022-12-29T08:12:28.594Z,8.90
2022-12-29T08:14:57.443Z,8.90
2022-12-29T08:17:26.853Z,8.90
2022-12-29T08:19:54.874Z,8.90
2022-12-29T08:22:23.078Z,8.90
2022-12-29T08:24:55.278Z,8.90
2022-12-29T08:27:23.571Z,8.90
2022-12-29T08:29:58.311Z,8.90
2022-12-29T08:32:31.118Z,8.90
2022-12-29T08:35:03.990Z,8.90
2022-12-29T08:37:40.977Z,8.90
2022-12-29T08:40:15.844Z,9.00
2022-12-29T08:42:49.227Z,9.00
2022-12-29T08:45:23.421Z,9.00
2022-12-29T08:48:22.398Z,9.00
2022-12-29T08:50:59.318Z,9.00
2022-12-29T08:53:31.729Z,9.00
2022-12-29T08:56:10.236Z,9.00
2022-12-29T08:58:44.158Z,9.00
2022-12-29T09:01:20.072Z,9.00
2022-12-29T09:06:44.779Z,9.00
2022-12-29T09:09:20.000Z,9.00
2022-12-29T09:11:58.666Z,9.00
2022-12-29T09:14:30.667Z,9.10
2022-12-29T09:17:18.905Z,9.00
2022-12-29T09:19:47.154Z,9.10
2022-12-29T09:22:15.541Z,9.00
2022-12-29T09:24:44.202Z,9.10
2022-12-29T09:27:14.972Z,9.10
2022-12-29T09:29:43.446Z,9.10
2022-12-29T09:32:18.192Z,9.10
2022-12-29T09:34:47.231Z,9.20
2022-12-29T09:37:15.267Z,9.20
2022-12-29T09:39:49.177Z,9.20
2022-12-29T09:42:34.116Z,9.20
2022-12-29T09:45:16.955Z,9.20
2022-12-29T09:47:48.873Z,9.20
2022-12-29T09:50:25.642Z,9.20
2022-12-29T09:53:02.710Z,9.10
2022-12-29T09:55:39.318Z,9.10
2022-12-29T09:58:20.105Z,9.10
2022-12-29T10:00:55.777Z,9.10
2022-12-29T10:03:28.237Z,9.10
2022-12-29T10:06:03.753Z,9.10
2022-12-29T10:08:39.909Z,9.10
2022-12-29T10:11:19.391Z,9.10
2022-12-29T10:14:03.426Z,9.10
2022-12-29T10:16:42.508Z,9.10
2022-12-29T10:19:39.208Z,9.10
2022-12-29T10:22:20.041Z,9.10
2022-12-29T10:24:51.127Z,9.10
2022-12-29T10:27:20.119Z,9.10
2022-12-29T10:29:54.275Z,9.10
2022-12-29T10:32:29.333Z,9.10
2022-12-29T10:35:00.663Z,9.10
2022-12-29T10:37:36.589Z,9.10
2022-12-29T10:40:18.254Z,9.10
2022-12-29T10:42:52.610Z,9.10
2022-12-29T10:45:24.174Z,9.10
2022-12-29T10:48:01.130Z,9.10
2022-12-29T10:50:30.756Z,9.10
2022-12-29T10:53:02.259Z,9.10
2022-12-29T10:55:34.745Z,9.10
2022-12-29T10:58:06.817Z,9.10
2022-12-29T11:00:36.386Z,9.10
2022-12-29T11:03:26.627Z,9.10
2022-12-29T11:05:59.400Z,9.10
2022-12-29T11:08:33.219Z,9.10
2022-12-29T11:11:03.021Z,9.10
2022-12-29T11:13:38.571Z,9.20
2022-12-29T11:16:14.304Z,9.20
2022-12-29T11:18:48.167Z,9.20
2022-12-29T11:21:41.223Z,9.20
2022-12-29T11:24:22.968Z,9.20
2022-12-29T11:26:53.952Z,9.20
2022-12-29T11:29:27.817Z,9.20
2022-12-29T11:32:00.100Z,9.20
2022-12-29T11:34:36.629Z,9.30
2022-12-29T11:37:08.366Z,9.30
2022-12-29T11:39:41.325Z,9.30
2022-12-29T11:42:17.299Z,9.30
2022-12-29T11:44:48.015Z,9.30
2022-12-29T11:47:27.881Z,9.30
2022-12-29T11:49:59.346Z,9.30
2022-12-29T11:52:30.807Z,9.40
2022-12-29T11:55:00.912Z,9.40
2022-12-29T11:57:30.040Z,9.40
2022-12-29T11:59:59.730Z,9.40
2022-12-29T12:02:43.724Z,9.40
2022-12-29T12:05:22.522Z,9.40
2022-12-29T12:07:56.916Z,9.40
2022-12-29T12:10:29.778Z,9.40
2022-12-29T12:13:13.344Z,9.40
2022-12-29T12:15:54.492Z,9.40
2022-12-29T12:18:35.990Z,9.40
2022-12-29T12:21:12.011Z,9.40
2022-12-29T12:23:49.723Z,9.40
2022-12-29T12:26:21.161Z,9.40
2022-12-29T12:28:54.981Z,9.40
2022-12-29T12:31:39.690Z,9.40
2022-12-29T12:34:16.253Z,9.30
2022-12-29T12:36:57.117Z,9.40
2022-12-29T12:39:29.154Z,9.30
2022-12-29T12:42:13.109Z,9.30
2022-12-29T12:44:53.964Z,9.30
2022-12-29T12:47:44.782Z,9.30
2022-12-29T12:50:39.164Z,9.20
2022-12-29T12:53:33.029Z,9.20
2022-12-29T12:56:18.028Z,9.20
2022-12-29T12:58:53.556Z,9.20
2022-12-29T13:01:37.952Z,9.10
2022-12-29T13:04:25.437Z,9.10
2022-12-29T13:07:06.312Z,9.10
2022-12-29T13:09:48.791Z,9.00
2022-12-29T13:12:29.530Z,9.00
2022-12-29T13:15:10.144Z,9.00
2022-12-29T13:17:45.312Z,8.90
2022-12-29T13:20:27.782Z,8.90
2022-12-29T13:23:04.475Z,8.90
2022-12-29T13:25:39.657Z,8.90
2022-12-29T13:28:18.467Z,8.90
2022-12-29T13:30:55.781Z,8.80
2022-12-29T13:33:29.830Z,8.70
2022-12-29T13:36:03.170Z,8.70
2022-12-29T13:38:38.435Z,8.60
2022-12-29T13:41:10.491Z,8.60
2022-12-29T13:43:41.893Z,8.60
2022-12-29T13:46:15.041Z,8.50
2022-12-29T13:48:52.837Z,8.50
2022-12-29T13:51:27.747Z,8.50
2022-12-29T13:54:12.479Z,8.50
2022-12-29T13:56:42.696Z,8.50
2022-12-29T13:59:23.325Z,8.50
2022-12-29T14:01:59.336Z,8.50
2022-12-29T14:04:35.303Z,8.40
2022-12-29T14:07:07.839Z,8.40
2022-12-29T14:09:44.775Z,8.40
2022-12-29T14:12:32.820Z,8.40
2022-12-29T14:15:16.366Z,8.40
2022-12-29T14:17:45.014Z,8.30
2022-12-29T14:20:21.614Z,8.30
2022-12-29T14:23:00.193Z,8.30
2022-12-29T14:26:01.913Z,8.30
2022-12-29T14:28:31.622Z,8.30
2022-12-29T14:31:00.633Z,8.30
2022-12-29T14:33:31.460Z,8.30
2022-12-29T14:36:20.519Z,8.30
2022-12-29T14:38:49.725Z,8.30
2022-12-29T14:41:26.368Z,8.30
2022-12-29T14:44:00.647Z,8.30
2022-12-29T14:46:47.259Z,8.30
2022-12-29T14:49:20.162Z,8.30
2022-12-29T14:51:50.308Z,8.30
2022-12-29T14:54:46.465Z,8.30
2022-12-29T14:57:31.670Z,8.30
2022-12-29T15:00:07.336Z,8.30
2022-12-29T15:02:40.873Z,8.30
2022-12-29T15:05:32.587Z,8.30
2022-12-29T15:08:02.497Z,8.20
2022-12-29T15:10:36.650Z,8.20
2022-12-29T15:13:17.765Z,8.20
2022-12-29T15:15:46.791Z,8.20
2022-12-29T15:18:22.297Z,8.20
2022-12-29T15:20:53.594Z,8.20
2022-12-29T15:23:22.013Z,8.20
2022-12-29T15:25:55.451Z,8.20
2022-12-29T15:28:25.309Z,8.20
2022-12-29T15:30:56.066Z,8.10
2022-12-29T15:33:26.305Z,8.10
2022-12-29T15:35:55.816Z,8.00
2022-12-29T15:38:33.379Z,8.00
2022-12-29T15:41:08.878Z,8.00
2022-12-29T15:43:55.953Z,7.90
2022-12-29T15:46:24.289Z,7.90
2022-12-29T15:48:52.442Z,7.90
2022-12-29T15:51:24.514Z,7.90
2022-12-29T15:53:53.725Z,7.80
2022-12-29T15:56:21.903Z,7.80
2022-12-29T15:58:52.735Z,7.80
2022-12-29T16:01:25.623Z,7.80
2022-12-29T16:03:54.943Z,7.70
2022-12-29T16:06:31.728Z,7.70
2022-12-29T16:09:01.936Z,7.70
2022-12-29T16:11:34.139Z,7.70
2022-12-29T16:14:04.452Z,7.60
2022-12-29T16:16:36.114Z,7.60
2022-12-29T16:19:12.117Z,7.50
2022-12-29T16:21:40.210Z,7.50
2022-12-29T16:24:14.452Z,7.50
2022-12-29T16:26:49.187Z,7.40
2022-12-29T16:29:19.058Z,7.40
2022-12-29T16:32:01.083Z,7.40
2022-12-29T16:34:32.144Z,7.30
2022-12-29T16:37:01.465Z,7.30
2022-12-29T16:39:38.084Z,7.30
2022-12-29T16:42:38.313Z,7.30
2022-12-29T16:45:45.467Z,7.20
2022-12-29T16:48:20.401Z,7.20
2022-12-29T16:50:49.622Z,7.20
2022-12-29T16:53:23.850Z,7.20
2022-12-29T16:55:53.724Z,7.10
2022-12-29T16:58:26.077Z,7.10
2022-12-29T17:00:57.932Z,7.10
2022-12-29T17:03:33.310Z,7.10
2022-12-29T17:06:01.401Z,7.10
2022-12-29T17:08:30.412Z,7.10
2022-12-29T17:11:16.419Z,7.10
2022-12-29T17:13:44.370Z,7.10
2022-12-29T17:16:13.893Z,7.10
2022-12-29T17:18:41.948Z,7.10
2022-12-29T17:21:09.982Z,7.10
2022-12-29T17:23:37.963Z,7.10
2022-12-29T17:26:14.675Z,7.10
2022-12-29T17:28:42.726Z,7.10
2022-12-29T17:31:13.241Z,7.10
2022-12-29T17:33:42.748Z,7.00
2022-12-29T17:36:12.386Z,7.00
2022-12-29T17:38:40.762Z,7.00
2022-12-29T17:41:15.150Z,7.00
2022-12-29T17:43:43.130Z,7.00
2022-12-29T17:46:11.128Z,6.90
2022-12-29T17:48:40.523Z,6.90
2022-12-29T17:51:11.621Z,6.90
2022-12-29T17:53:39.643Z,6.90
2022-12-29T17:56:09.285Z,6.90
2022-12-29T17:58:37.268Z,6.90
2022-12-29T18:01:07.226Z,6.90
2022-12-29T18:03:38.254Z,7.00
2022-12-29T18:06:09.495Z,7.00
2022-12-29T18:08:39.662Z,7.00
2022-12-29T18:11:17.381Z,7.00
2022-12-29T18:13:46.877Z,7.00
2022-12-29T18:16:15.476Z,7.00
2022-12-29T18:18:43.557Z,7.00
2022-12-29T18:21:18.464Z,7.00
2022-12-29T18:23:46.874Z,7.00
2022-12-29T18:26:23.737Z,7.00
2022-12-29T18:28:55.499Z,7.00
2022-12-29T18:31:25.741Z,7.00
2022-12-29T18:33:55.287Z,7.00
2022-12-29T18:36:24.984Z,7.00
2022-12-29T18:38:54.634Z,7.00
2022-12-29T18:41:24.111Z,6.90
2022-12-29T18:43:52.357Z,6.90
2022-12-29T18:46:23.196Z,6.90
2022-12-29T18:48:51.976Z,6.90
2022-12-29T18:51:22.746Z,6.90
2022-12-29T18:53:54.067Z,6.90
2022-12-29T18:56:23.127Z,6.90
2022-12-29T18:58:53.380Z,6.90
2022-12-29T19:01:24.358Z,6.90
2022-12-29T19:03:53.183Z,7.00
2022-12-29T19:06:22.015Z,7.00
2022-12-29T19:08:51.468Z,7.00
2022-12-29T19:11:19.512Z,7.00
2022-12-29T19:13:47.585Z,7.00
2022-12-29T19:16:20.361Z,7.10
2022-12-29T19:18:58.559Z,7.10
2022-12-29T19:21:36.454Z,7.10
2022-12-29T19:24:06.057Z,7.10
2022-12-29T19:26:36.465Z,7.10
2022-12-29T19:29:05.944Z,7.10
2022-12-29T19:31:34.017Z,7.10
2022-12-29T19:34:02.846Z,7.10
2022-12-29T19:36:30.973Z,7.10
2022-12-29T19:38:59.230Z,7.10
2022-12-29T19:41:28.619Z,7.00
2022-12-29T19:43:57.087Z,6.90
2022-12-29T19:46:25.505Z,6.80
2022-12-29T19:48:54.884Z,6.70
2022-12-29T19:51:22.922Z,6.70
2022-12-29T19:53:50.892Z,6.70
2022-12-29T19:56:19.358Z,6.60
2022-12-29T19:58:48.726Z,6.60
2022-12-29T20:01:18.669Z,6.60
2022-12-29T20:03:47.094Z,6.60
2022-12-29T20:06:15.598Z,6.50
2022-12-29T20:08:43.881Z,6.50
2022-12-29T20:11:13.633Z,6.50
2022-12-29T20:13:42.628Z,6.50
2022-12-29T20:16:14.886Z,6.50
2022-12-29T20:18:43.656Z,6.60
2022-12-29T20:21:16.465Z,6.60
2022-12-29T20:23:45.074Z,6.60
2022-12-29T20:26:16.476Z,6.70
2022-12-29T20:28:44.630Z,6.60
2022-12-29T20:31:20.476Z,6.70
2022-12-29T20:33:48.685Z,6.70
2022-12-29T20:36:18.627Z,6.70
2022-12-29T20:38:47.803Z,6.70
2022-12-29T20:41:15.959Z,6.60
2022-12-29T20:43:44.652Z,6.70
2022-12-29T20:46:18.050Z,6.60
2022-12-29T20:48:49.842Z,6.60
2022-12-29T20:51:17.860Z,6.60
2022-12-29T20:53:45.996Z,6.60
2022-12-29T20:56:17.208Z,6.60
2022-12-29T20:59:25.970Z,6.60
2022-12-29T21:01:34.528Z,6.50
2022-12-29T21:04:05.463Z,6.50
2022-12-29T21:06:34.203Z,6.50
2022-12-29T21:09:03.231Z,6.50
2022-12-29T21:11:31.228Z,6.50
2022-12-29T21:14:01.465Z,6.50
2022-12-29T21:16:29.995Z,6.50
2022-12-29T21:18:58.286Z,6.50
2022-12-29T21:21:27.951Z,6.50
2022-12-29T21:23:55.974Z,6.50
2022-12-29T21:26:25.529Z,6.50
2022-12-29T21:28:54.597Z,6.50
2022-12-29T21:31:27.572Z,6.50
2022-12-29T21:33:56.815Z,6.50
2022-12-29T21:36:25.165Z,6.50
2022-12-29T21:38:54.743Z,6.50
2022-12-29T21:41:23.085Z,6.40
2022-12-29T21:44:05.234Z,6.50
2022-12-29T21:46:33.968Z,6.40
2022-12-29T21:49:02.012Z,6.40
2022-12-29T21:51:47.490Z,6.40
2022-12-29T21:54:35.080Z,6.40
2022-12-29T21:57:03.067Z,6.30
2022-12-29T21:59:48.588Z,6.30
2022-12-29T22:02:39.240Z,6.30
2022-12-29T22:05:26.449Z,6.30
2022-12-29T22:08:11.856Z,6.20
2022-12-29T22:11:03.200Z,6.20
2022-12-29T22:13:32.723Z,6.20
2022-12-29T22:16:00.769Z,6.20
2022-12-29T22:18:28.889Z,6.10
2022-12-29T22:20:56.854Z,6.10
2022-12-29T22:23:24.943Z,6.10
2022-12-29T22:25:54.276Z,6.10
2022-12-29T22:28:22.414Z,6.10
2022-12-29T22:30:50.503Z,6.00
2022-12-29T22:33:18.963Z,6.00
2022-12-29T22:35:46.932Z,6.10
2022-12-29T22:38:15.393Z,6.00
2022-12-29T22:40:43.363Z,6.00
2022-12-29T22:43:13.400Z,6.10
2022-12-29T22:45:42.042Z,6.00
2022-12-29T22:48:10.094Z,6.00
2022-12-29T22:50:40.580Z,6.00
2022-12-29T22:53:08.583Z,6.00
2022-12-29T22:55:36.566Z,6.00
2022-12-29T22:58:04.717Z,6.00
2022-12-29T23:00:34.551Z,6.00
2022-12-29T23:03:02.724Z,6.00
2022-12-29T23:05:30.853Z,6.00
2022-12-29T23:07:58.862Z,6.00
2022-12-29T23:10:27.058Z,6.00
2022-12-29T23:12:55.171Z,6.10
2022-12-29T23:15:23.165Z,6.10
2022-12-29T23:17:52.473Z,6.10
2022-12-29T23:20:20.536Z,6.10
2022-12-29T23:22:48.492Z,6.00
2022-12-29T23:25:16.742Z,6.10
2022-12-29T23:27:44.701Z,6.00
2022-12-29T23:30:12.984Z,6.10
2022-12-29T23:32:40.949Z,6.00
2022-12-29T23:35:11.643Z,6.00
2022-12-29T23:37:39.655Z,6.10
2022-12-29T23:40:08.798Z,6.10
2022-12-29T23:42:36.789Z,6.00
2022-12-29T23:45:06.656Z,6.00
2022-12-29T23:47:34.657Z,6.00
2022-12-29T23:50:02.637Z,6.00
2022-12-29T23:52:31.945Z,6.00
2022-12-29T23:54:59.936Z,6.00
2022-12-29T23:57:27.892Z,6.00
2022-12-29T23:59:55.814Z,6.00
